createdAt,value
2019-04-20T00:01:26.308Z,46.53
2019-04-20T00:03:55.307Z,46.54
2019-04-20T00:06:31.754Z,47.16
2019-04-20T00:09:09.705Z,47.65
2019-04-20T00:11:50.241Z,48.13
2019-04-20T00:14:17.257Z,48.35
2019-04-20T00:16:46.052Z,47.77
2019-04-20T00:19:26.166Z,48.17
2019-04-20T00:21:59.587Z,48.38
2019-04-20T00:24:37.224Z,48.64
2019-04-20T00:27:32.850Z,48.78
2019-04-20T00:30:00.149Z,48.22
2019-04-20T00:32:29.529Z,48.44
2019-04-20T00:34:51.164Z,49.02
2019-04-20T00:37:23.439Z,48.28
2019-04-20T00:39:56.481Z,47.17
2019-04-20T00:42:33.960Z,44.95
2019-04-20T00:45:10.726Z,44.36
2019-04-20T00:47:45.399Z,44.75
2019-04-20T00:50:29.762Z,45.56
2019-04-20T00:52:55.597Z,45.38
2019-04-20T00:55:17.041Z,45.21
2019-04-20T00:57:55.341Z,44.66
2019-04-20T01:00:38.310Z,45.12
2019-04-20T01:03:15.787Z,46.06
2019-04-20T01:05:52.943Z,45.86
2019-04-20T01:08:08.173Z,45.93
2019-04-20T01:10:47.208Z,45.56
2019-04-20T01:13:18.696Z,45.44
2019-04-20T01:15:55.353Z,45.82
2019-04-20T01:18:24.054Z,45.80
2019-04-20T01:21:00.301Z,45.27
2019-04-20T01:23:38.225Z,45.97
2019-04-20T01:26:10.937Z,46.05
2019-04-20T01:28:54.203Z,45.27
2019-04-20T01:31:25.371Z,45.54
2019-04-20T01:33:56.591Z,46.25
2019-04-20T01:36:40.628Z,45.86
2019-04-20T01:39:09.214Z,46.37
2019-04-20T01:41:28.512Z,46.69
2019-04-20T01:44:00.583Z,46.68
2019-04-20T01:46:33.747Z,46.14
2019-04-20T01:49:11.501Z,46.49
2019-04-20T01:51:55.603Z,46.70
2019-04-20T01:54:29.858Z,47.27
2019-04-20T01:56:58.891Z,46.00
2019-04-20T01:59:37.095Z,46.73
2019-04-20T02:02:14.059Z,47.55
2019-04-20T02:04:47.311Z,47.52
2019-04-20T02:07:25.567Z,47.23
2019-04-20T02:09:58.295Z,47.47
2019-04-20T02:12:31.158Z,47.74
2019-04-20T02:15:04.326Z,47.57
2019-04-20T02:17:40.811Z,47.76
2019-04-20T02:20:28.696Z,47.72
2019-04-20T02:22:59.410Z,48.06
2019-04-20T02:25:18.555Z,47.94
2019-04-20T02:27:57.823Z,47.88
2019-04-20T02:31:06.340Z,47.90
2019-04-20T02:36:15.476Z,48.22
2019-04-20T02:39:05.860Z,48.16
2019-04-20T02:41:17.890Z,48.32
2019-04-20T02:46:24.835Z,48.62
2019-04-20T02:49:01.028Z,48.57
2019-04-20T02:51:35.460Z,48.47
2019-04-20T02:56:49.217Z,48.35
2019-04-20T02:59:43.226Z,48.81
2019-04-20T03:01:36.660Z,47.95
2019-04-20T03:03:54.938Z,48.36
2019-04-20T03:06:36.443Z,49.08
2019-04-20T03:09:20.370Z,49.30
2019-04-20T03:11:59.648Z,48.75
2019-04-20T03:14:21.790Z,48.95
2019-04-20T03:16:54.770Z,48.92
2019-04-20T03:19:23.679Z,49.79
2019-04-20T03:22:09.829Z,49.05
2019-04-20T03:24:43.928Z,49.38
2019-04-20T03:27:14.870Z,49.04
2019-04-20T03:29:46.976Z,49.29
2019-04-20T03:32:50.091Z,48.93
2019-04-20T03:35:08.132Z,49.27
2019-04-20T03:37:36.981Z,48.91
2019-04-20T03:39:56.817Z,48.67
2019-04-20T03:42:18.186Z,48.57
2019-04-20T03:44:57.068Z,49.11
2019-04-20T03:47:34.881Z,48.42
2019-04-20T03:50:18.526Z,48.17
2019-04-20T03:52:58.322Z,47.70
2019-04-20T03:55:44.574Z,47.79
2019-04-20T03:58:24.162Z,47.74
2019-04-20T04:01:16.309Z,47.09
2019-04-20T04:04:02.624Z,47.89
2019-04-20T04:06:24.262Z,47.53
2019-04-20T04:09:02.801Z,47.74
2019-04-20T04:11:37.904Z,48.04
2019-04-20T04:13:54.660Z,48.35
2019-04-20T04:16:32.822Z,48.09
2019-04-20T04:19:10.067Z,48.62
2019-04-20T04:21:46.824Z,47.69
2019-04-20T04:24:21.192Z,48.08
2019-04-20T04:26:55.997Z,47.69
2019-04-20T04:29:35.588Z,47.07
2019-04-20T04:32:12.091Z,47.85
2019-04-20T04:34:38.518Z,47.54
2019-04-20T04:37:17.624Z,46.94
2019-04-20T04:39:49.242Z,46.61
2019-04-20T04:42:37.808Z,46.77
2019-04-20T04:44:46.786Z,48.69
2019-04-20T04:47:13.396Z,48.14
2019-04-20T04:49:53.875Z,48.19
2019-04-20T04:52:27.524Z,47.12
2019-04-20T04:54:58.753Z,46.88
2019-04-20T04:57:24.838Z,45.91
2019-04-20T04:59:57.314Z,45.42
2019-04-20T05:02:39.335Z,43.74
2019-04-20T05:05:37.787Z,43.32
2019-04-20T05:08:01.883Z,44.10
2019-04-20T05:10:22.393Z,44.51
2019-04-20T05:12:54.814Z,42.73
2019-04-20T05:15:41.276Z,44.82
2019-04-20T05:18:20.659Z,45.39
2019-04-20T05:20:58.803Z,44.61
2019-04-20T05:23:28.078Z,44.81
2019-04-20T05:26:13.801Z,42.55
2019-04-20T05:28:48.607Z,43.90
2019-04-20T05:31:12.232Z,44.15
2019-04-20T05:34:10.847Z,44.39
2019-04-20T05:36:41.498Z,43.22
2019-04-20T05:39:23.587Z,41.66
2019-04-20T05:41:42.937Z,44.31
2019-04-20T05:44:17.029Z,43.94
2019-04-20T05:46:56.563Z,42.91
2019-04-20T05:49:33.123Z,42.61
2019-04-20T05:52:10.260Z,43.01
2019-04-20T05:54:39.099Z,43.37
2019-04-20T05:57:17.206Z,43.24
2019-04-20T05:59:54.305Z,42.31
2019-04-20T06:02:16.865Z,43.52
2019-04-20T06:04:59.959Z,41.89
2019-04-20T06:07:27.151Z,42.25
2019-04-20T06:09:59.422Z,41.64
2019-04-20T06:12:31.841Z,41.71
2019-04-20T06:15:09.467Z,43.04
2019-04-20T06:18:03.844Z,41.90
2019-04-20T06:20:41.221Z,41.64
2019-04-20T06:23:38.706Z,41.28
2019-04-20T06:26:33.548Z,44.15
2019-04-20T06:28:38.801Z,41.43
2019-04-20T06:31:26.697Z,43.08
2019-04-20T06:34:27.137Z,42.09
2019-04-20T06:36:49.829Z,42.30
2019-04-20T06:47:10.370Z,41.31
2019-04-20T06:49:40.618Z,39.88
2019-04-20T06:55:05.155Z,40.38
2019-04-20T07:00:15.634Z,37.30
2019-04-20T07:02:48.553Z,37.97
2019-04-20T07:08:00.762Z,38.41
2019-04-20T07:10:34.696Z,38.24
2019-04-20T07:12:59.804Z,37.77
2019-04-20T07:15:41.189Z,37.43
2019-04-20T07:18:25.407Z,37.34
2019-04-20T07:21:17.211Z,34.95
2019-04-20T07:23:35.255Z,35.85
2019-04-20T07:26:09.543Z,34.62
2019-04-20T07:31:08.476Z,37.20
2019-04-20T07:33:48.231Z,36.96
2019-04-20T07:36:27.976Z,35.66
2019-04-20T07:38:56.799Z,36.00
2019-04-20T07:41:33.183Z,35.33
2019-04-20T07:44:07.295Z,35.40
2019-04-20T07:46:47.500Z,35.69
2019-04-20T07:49:07.676Z,35.76
2019-04-20T07:51:26.602Z,36.01
2019-04-20T07:54:23.240Z,35.10
2019-04-20T07:56:50.507Z,34.16
2019-04-20T07:59:14.963Z,35.64
2019-04-20T08:02:15.971Z,34.88
2019-04-20T08:04:43.498Z,33.59
2019-04-20T08:07:03.524Z,34.90
2019-04-20T08:09:42.200Z,33.63
2019-04-20T08:12:51.796Z,33.31
2019-04-20T08:15:32.444Z,33.63
2019-04-20T08:18:10.380Z,30.39
2019-04-20T08:20:24.558Z,30.26
2019-04-20T08:23:12.275Z,30.70
2019-04-20T08:25:27.794Z,31.45
2019-04-20T08:28:13.567Z,32.09
2019-04-20T08:31:09.445Z,32.77
2019-04-20T08:34:04.415Z,31.85
2019-04-20T08:36:30.091Z,33.22
2019-04-20T08:41:28.901Z,28.33
2019-04-20T08:44:21.110Z,30.96
2019-04-20T08:46:45.566Z,30.51
2019-04-20T08:49:20.468Z,31.13
2019-04-20T08:51:59.952Z,28.93
2019-04-20T08:54:18.100Z,30.55
2019-04-20T08:56:43.439Z,30.18
2019-04-20T08:59:09.374Z,31.31
2019-04-20T09:01:44.479Z,33.15
2019-04-20T09:04:25.464Z,32.34
2019-04-20T09:07:04.468Z,28.26
2019-04-20T09:10:00.389Z,31.43
2019-04-20T09:12:15.860Z,30.30
2019-04-20T09:14:34.751Z,28.46
2019-04-20T09:17:11.459Z,28.20
2019-04-20T09:19:52.707Z,28.50
2019-04-20T09:22:40.618Z,28.40
2019-04-20T09:28:14.516Z,28.59
2019-04-20T09:30:51.183Z,27.54
2019-04-20T09:33:48.703Z,29.36
2019-04-20T09:36:18.240Z,26.11
2019-04-20T09:39:05.895Z,29.47
2019-04-20T09:41:58.953Z,28.18
2019-04-20T09:44:11.012Z,29.08
2019-04-20T09:46:48.987Z,25.95
2019-04-20T09:49:30.718Z,30.30
2019-04-20T09:52:06.609Z,31.63
2019-04-20T09:54:41.638Z,29.62
2019-04-20T09:57:21.313Z,27.07
2019-04-20T09:59:52.653Z,30.38
2019-04-20T10:02:11.240Z,27.56
2019-04-20T10:04:39.810Z,30.01
2019-04-20T10:07:17.637Z,26.23
2019-04-20T10:09:47.340Z,26.98
2019-04-20T10:12:20.151Z,29.52
2019-04-20T10:14:53.197Z,27.77
2019-04-20T10:17:27.217Z,26.30
2019-04-20T10:20:02.553Z,28.58
2019-04-20T10:22:32.929Z,26.57
2019-04-20T10:25:06.644Z,26.49
2019-04-20T10:27:40.612Z,26.25
2019-04-20T10:30:12.555Z,28.77
2019-04-20T10:32:47.175Z,24.42
2019-04-20T10:35:18.822Z,24.29
2019-04-20T10:38:05.312Z,25.79
2019-04-20T10:40:47.547Z,24.93
2019-04-20T10:43:12.018Z,27.65
2019-04-20T10:45:44.860Z,24.90
2019-04-20T10:48:17.315Z,26.82
2019-04-20T10:50:49.352Z,25.89
2019-04-20T10:53:21.827Z,25.35
2019-04-20T10:55:53.880Z,25.28
2019-04-20T10:58:25.686Z,26.84
2019-04-20T11:00:57.776Z,24.20
2019-04-20T11:03:29.779Z,24.88
2019-04-20T11:06:02.769Z,25.62
2019-04-20T11:08:34.918Z,24.77
2019-04-20T11:11:14.602Z,25.11
2019-04-20T11:13:41.466Z,25.55
2019-04-20T11:16:14.712Z,26.30
2019-04-20T11:18:47.305Z,27.82
2019-04-20T11:21:19.629Z,25.47
2019-04-20T11:23:54.038Z,24.01
2019-04-20T11:26:28.496Z,24.39
2019-04-20T11:29:00.600Z,24.70
2019-04-20T11:31:40.571Z,23.76
2019-04-20T11:34:06.060Z,26.69
2019-04-20T11:36:39.234Z,24.66
2019-04-20T11:39:12.820Z,23.69
2019-04-20T11:41:45.722Z,24.20
2019-04-20T11:44:17.933Z,21.60
2019-04-20T11:46:50.368Z,22.10
2019-04-20T11:49:23.558Z,24.05
2019-04-20T11:51:57.243Z,22.17
2019-04-20T11:54:30.430Z,22.31
2019-04-20T11:57:03.715Z,23.23
2019-04-20T11:59:37.031Z,24.28
2019-04-20T12:02:21.491Z,22.69
2019-04-20T12:04:59.929Z,22.11
2019-04-20T12:07:24.770Z,21.48
2019-04-20T12:09:58.498Z,20.95
2019-04-20T12:12:39.997Z,21.08
2019-04-20T12:15:04.497Z,21.83
2019-04-20T12:17:37.720Z,22.12
2019-04-20T12:20:10.184Z,21.63
2019-04-20T12:22:42.218Z,22.48
2019-04-20T12:25:14.665Z,20.57
2019-04-20T12:27:50.837Z,20.46
2019-04-20T12:30:21.748Z,21.20
2019-04-20T12:32:57.653Z,19.62
2019-04-20T12:35:27.372Z,20.48
2019-04-20T12:37:59.266Z,19.71
2019-04-20T12:40:32.357Z,19.58
2019-04-20T12:43:04.762Z,19.42
2019-04-20T12:45:37.792Z,18.69
2019-04-20T12:48:09.754Z,19.48
2019-04-20T12:50:41.839Z,18.45
2019-04-20T12:53:14.816Z,20.42
2019-04-20T12:55:46.830Z,17.45
2019-04-20T12:58:18.782Z,18.46
2019-04-20T13:00:54.237Z,18.74
2019-04-20T13:03:27.567Z,18.55
2019-04-20T13:05:59.483Z,15.42
2019-04-20T13:08:36.829Z,15.36
2019-04-20T13:11:10.988Z,15.46
2019-04-20T13:14:06.347Z,15.89
2019-04-20T13:16:39.073Z,16.24
2019-04-20T13:19:11.199Z,17.25
2019-04-20T13:21:43.233Z,16.62
2019-04-20T13:24:15.191Z,16.78
2019-04-20T13:26:49.001Z,18.03
2019-04-20T13:29:21.132Z,20.44
2019-04-20T13:31:54.590Z,20.16
2019-04-20T13:34:26.559Z,19.03
2019-04-20T13:36:58.530Z,17.78
2019-04-20T13:39:30.979Z,18.59
2019-04-20T13:42:11.426Z,15.85
2019-04-20T13:44:36.963Z,15.39
2019-04-20T13:47:09.153Z,15.81
2019-04-20T13:49:41.111Z,16.18
2019-04-20T13:52:12.962Z,15.27
2019-04-20T13:54:45.262Z,15.41
2019-04-20T13:57:24.537Z,15.56
2019-04-20T14:00:02.379Z,14.58
2019-04-20T14:02:42.643Z,15.54
2019-04-20T14:05:16.924Z,15.10
2019-04-20T14:07:49.313Z,15.19
2019-04-20T14:10:22.041Z,14.10
2019-04-20T14:13:01.717Z,14.12
2019-04-20T14:15:29.005Z,13.99
2019-04-20T14:18:02.256Z,13.98
2019-04-20T14:20:34.358Z,14.83
2019-04-20T14:23:07.395Z,14.66
2019-04-20T14:25:39.303Z,15.27
2019-04-20T14:28:11.381Z,16.06
2019-04-20T14:30:45.787Z,16.03
2019-04-20T14:33:18.954Z,16.78
2019-04-20T14:35:51.009Z,16.23
2019-04-20T14:38:24.063Z,16.72
2019-04-20T14:40:56.160Z,17.59
2019-04-20T14:43:30.217Z,18.50
2019-04-20T14:46:02.947Z,18.60
2019-04-20T14:48:36.514Z,18.71
2019-04-20T14:51:09.783Z,18.17
2019-04-20T14:53:43.188Z,19.13
2019-04-20T14:56:15.672Z,18.67
2019-04-20T14:58:47.276Z,19.09
2019-04-20T15:01:36.856Z,17.72
2019-04-20T15:04:13.458Z,17.71
2019-04-20T15:06:42.518Z,18.28
2019-04-20T15:09:14.794Z,17.72
2019-04-20T15:11:46.758Z,19.92
2019-04-20T15:14:18.795Z,19.09
2019-04-20T15:16:50.941Z,19.54
2019-04-20T15:19:25.409Z,17.42
2019-04-20T15:21:59.823Z,17.21
2019-04-20T15:24:31.756Z,16.55
2019-04-20T15:27:04.767Z,16.85
2019-04-20T15:29:38.159Z,16.65
2019-04-20T15:32:10.313Z,15.83
2019-04-20T15:34:42.693Z,16.63
2019-04-20T15:37:14.647Z,16.75
2019-04-20T15:39:47.832Z,17.85
2019-04-20T15:42:19.671Z,18.26
2019-04-20T15:44:51.634Z,18.53
2019-04-20T15:47:23.568Z,18.89
2019-04-20T15:49:55.984Z,19.42
2019-04-20T15:52:36.277Z,19.93
2019-04-20T15:55:10.315Z,20.17
2019-04-20T15:57:36.495Z,19.80
2019-04-20T16:00:10.766Z,19.87
2019-04-20T16:02:47.409Z,19.96
2019-04-20T16:05:22.036Z,20.64
2019-04-20T16:07:58.586Z,20.18
2019-04-20T16:10:28.591Z,20.27
2019-04-20T16:13:11.805Z,20.60
2019-04-20T16:15:35.848Z,20.93
2019-04-20T16:18:10.097Z,20.38
2019-04-20T16:20:50.701Z,20.98
2019-04-20T16:23:16.638Z,21.34
2019-04-20T16:26:07.801Z,20.49
2019-04-20T16:28:39.979Z,21.26
2019-04-20T16:31:14.104Z,20.38
2019-04-20T16:33:46.483Z,20.06
2019-04-20T16:36:18.733Z,20.98
2019-04-20T16:38:51.125Z,21.50
2019-04-20T16:41:24.273Z,22.92
2019-04-20T16:43:57.478Z,22.03
2019-04-20T16:46:30.101Z,21.31
2019-04-20T16:49:03.035Z,22.07
2019-04-20T16:51:34.965Z,21.71
2019-04-20T16:54:07.780Z,21.69
2019-04-20T16:56:39.604Z,21.94
2019-04-20T16:59:12.170Z,22.07
2019-04-20T17:01:44.944Z,23.18
2019-04-20T17:04:22.016Z,23.08
2019-04-20T17:07:10.176Z,23.54
2019-04-20T17:09:43.928Z,23.17
2019-04-20T17:12:15.834Z,23.63
2019-04-20T17:14:47.716Z,23.70
2019-04-20T17:17:19.774Z,24.43
2019-04-20T17:19:51.864Z,24.61
2019-04-20T17:22:23.855Z,24.31
2019-04-20T17:24:56.175Z,24.79
2019-04-20T17:27:46.793Z,25.60
2019-04-20T17:30:24.916Z,25.48
2019-04-20T17:33:02.252Z,26.13
2019-04-20T17:35:43.471Z,27.09
2019-04-20T17:38:08.946Z,26.03
2019-04-20T17:41:01.546Z,26.38
2019-04-20T17:43:25.363Z,26.64
2019-04-20T17:45:57.865Z,26.64
2019-04-20T17:48:37.148Z,25.86
2019-04-20T17:51:17.728Z,26.29
2019-04-20T17:53:44.659Z,26.39
2019-04-20T17:56:10.434Z,27.84
2019-04-20T17:58:43.872Z,28.93
2019-04-20T18:01:51.911Z,29.66
2019-04-20T18:04:41.836Z,30.30
2019-04-20T18:06:58.017Z,30.65
2019-04-20T18:09:44.914Z,30.25
2019-04-20T18:11:59.622Z,30.92
2019-04-20T18:14:43.091Z,30.79
2019-04-20T18:17:17.756Z,32.17
2019-04-20T18:19:41.242Z,30.90
2019-04-20T18:22:13.964Z,31.98
2019-04-20T18:25:10.411Z,32.53
2019-04-20T18:27:37.571Z,32.80
2019-04-20T18:30:11.720Z,33.40
2019-04-20T18:32:29.529Z,34.78
2019-04-20T18:35:06.973Z,33.93
2019-04-20T18:37:36.662Z,33.30
2019-04-20T18:40:14.421Z,35.14
2019-04-20T18:42:44.202Z,35.27
2019-04-20T18:45:29.608Z,34.94
2019-04-20T18:48:11.681Z,34.81
2019-04-20T18:50:32.869Z,34.21
2019-04-20T18:52:58.135Z,35.19
2019-04-20T18:55:40.942Z,36.24
2019-04-20T18:58:04.710Z,36.04
2019-04-20T19:00:41.896Z,34.36
2019-04-20T19:03:18.146Z,36.81
2019-04-20T19:05:43.915Z,37.51
2019-04-20T19:08:18.030Z,37.14
2019-04-20T19:10:57.560Z,37.25
2019-04-20T19:13:42.355Z,36.94
2019-04-20T19:16:31.264Z,35.92
2019-04-20T19:19:09.922Z,36.91
2019-04-20T19:21:35.429Z,38.34
2019-04-20T19:24:12.676Z,37.51
2019-04-20T19:26:44.955Z,38.03
2019-04-20T19:29:23.228Z,38.82
2019-04-20T19:32:07.298Z,40.58
2019-04-20T19:34:37.775Z,40.20
2019-04-20T19:37:04.084Z,39.72
2019-04-20T19:39:44.880Z,39.35
2019-04-20T19:42:18.183Z,41.15
2019-04-20T19:44:51.624Z,41.05
2019-04-20T19:47:28.420Z,38.15
2019-04-20T19:49:56.502Z,39.27
2019-04-20T19:52:43.355Z,39.05
2019-04-20T19:55:10.586Z,38.60
2019-04-20T19:57:42.925Z,38.27
2019-04-20T19:59:58.726Z,38.45
2019-04-20T20:02:31.900Z,38.73
2019-04-20T20:05:08.712Z,38.84
2019-04-20T20:07:42.616Z,38.57
2019-04-20T20:10:12.864Z,38.97
2019-04-20T20:12:49.683Z,38.90
2019-04-20T20:15:26.157Z,38.82
2019-04-20T20:18:11.222Z,38.31
2019-04-20T20:20:47.450Z,40.43
2019-04-20T20:23:00.694Z,40.50
2019-04-20T20:25:37.319Z,40.37
2019-04-20T20:28:25.873Z,40.81
2019-04-20T20:30:53.817Z,41.32
2019-04-20T20:33:27.837Z,41.59
2019-04-20T20:35:58.546Z,41.37
2019-04-20T20:38:27.972Z,40.46
2019-04-20T20:41:05.709Z,40.70
2019-04-20T20:43:40.754Z,40.36
2019-04-20T20:46:18.418Z,40.89
2019-04-20T20:49:00.518Z,40.70
2019-04-20T20:51:34.617Z,41.03
2019-04-20T20:53:54.400Z,41.20
2019-04-20T20:56:24.403Z,41.58
2019-04-20T20:59:01.799Z,41.14
2019-04-20T21:01:27.525Z,41.21
2019-04-20T21:03:58.513Z,41.75
2019-04-20T21:06:32.857Z,41.66
2019-04-20T21:09:06.258Z,41.65
2019-04-20T21:11:40.157Z,41.43
2019-04-20T21:14:21.052Z,41.47
2019-04-20T21:16:57.605Z,41.13
2019-04-20T21:19:35.303Z,41.42
2019-04-20T21:22:04.462Z,41.59
2019-04-20T21:24:30.286Z,41.55
2019-04-20T21:27:08.862Z,42.20
2019-04-20T21:29:45.361Z,42.00
2019-04-20T21:32:14.369Z,42.06
2019-04-20T21:34:49.305Z,42.53
2019-04-20T21:37:20.084Z,42.50
2019-04-20T21:39:56.041Z,42.07
2019-04-20T21:42:28.186Z,42.51
2019-04-20T21:45:08.127Z,42.48
2019-04-20T21:47:36.294Z,43.15
2019-04-20T21:50:27.124Z,42.87
2019-04-20T21:52:46.671Z,43.08
2019-04-20T21:55:16.191Z,43.01
2019-04-20T21:57:51.687Z,43.15
2019-04-20T22:00:39.790Z,43.56
2019-04-20T22:03:11.281Z,44.10
2019-04-20T22:05:42.323Z,43.92
2019-04-20T22:08:16.444Z,43.91
2019-04-20T22:10:50.294Z,43.85
2019-04-20T22:13:28.224Z,44.41
2019-04-20T22:16:02.015Z,43.44
2019-04-20T22:18:31.872Z,43.12
2019-04-20T22:21:12.817Z,43.36
2019-04-20T22:23:57.232Z,44.17
2019-04-20T22:26:24.339Z,44.54
2019-04-20T22:28:44.576Z,44.96
2019-04-20T22:31:16.463Z,45.54
2019-04-20T22:33:48.832Z,45.76
2019-04-20T22:36:25.977Z,45.98
2019-04-20T22:39:09.807Z,45.89
2019-04-20T22:41:52.441Z,46.43
2019-04-20T22:44:22.456Z,46.43
2019-04-20T22:46:54.279Z,46.48
2019-04-20T22:49:41.348Z,46.66
2019-04-20T22:52:13.267Z,47.48
2019-04-20T22:54:48.874Z,47.84
2019-04-20T22:57:19.344Z,47.87
2019-04-20T22:59:52.448Z,47.52
2019-04-20T23:02:16.285Z,47.88
2019-04-20T23:04:48.810Z,48.81
2019-04-20T23:07:20.981Z,48.37
2019-04-20T23:09:56.448Z,48.76
2019-04-20T23:12:27.570Z,48.32
2019-04-20T23:15:00.478Z,48.38
2019-04-20T23:17:39.811Z,48.54
2019-04-20T23:20:15.351Z,48.75
2019-04-20T23:22:45.660Z,49.26
2019-04-20T23:25:15.404Z,49.77
2019-04-20T23:27:51.174Z,49.92
2019-04-20T23:30:26.230Z,48.86
2019-04-20T23:32:55.942Z,49.60
2019-04-20T23:35:28.653Z,49.31
2019-04-20T23:38:08.404Z,49.49
2019-04-20T23:40:35.070Z,50.32
2019-04-20T23:43:28.176Z,50.38
2019-04-20T23:46:20.942Z,50.78
2019-04-20T23:49:13.550Z,50.99
2019-04-20T23:51:59.152Z,51.93
2019-04-20T23:54:20.196Z,51.37
2019-04-20T23:56:48.002Z,51.61
2019-04-20T23:59:30.667Z,51.65
